createdAt,value
2019-05-11T00:00:22.617Z,17.40
2019-05-11T00:01:27.234Z,17.80
2019-05-11T00:02:31.868Z,14.87
2019-05-11T00:03:36.384Z,14.23
2019-05-11T00:04:40.999Z,15.28
2019-05-11T00:05:45.545Z,14.20
2019-05-11T00:06:50.093Z,13.50
2019-05-11T00:07:54.792Z,15.80
2019-05-11T00:08:59.369Z,14.25
2019-05-11T00:10:04.626Z,15.00
2019-05-11T00:11:09.302Z,14.28
2019-05-11T00:12:13.871Z,13.72
2019-05-11T00:13:18.432Z,14.87
2019-05-11T00:14:22.981Z,14.25
2019-05-11T00:15:27.564Z,15.70
2019-05-11T00:16:32.198Z,13.93
2019-05-11T00:17:36.743Z,14.78
2019-05-11T00:18:41.309Z,14.15
2019-05-11T00:19:45.813Z,14.35
2019-05-11T00:20:50.465Z,14.65
2019-05-11T00:21:55.059Z,15.50
2019-05-11T00:22:59.586Z,14.33
2019-05-11T00:24:04.109Z,15.32
2019-05-11T00:25:08.983Z,15.30
2019-05-11T00:26:13.569Z,16.10
2019-05-11T00:27:18.086Z,15.58
2019-05-11T00:28:22.591Z,14.85
2019-05-11T00:29:27.126Z,13.62
2019-05-11T00:30:31.694Z,15.63
2019-05-11T00:32:31.887Z,16.87
2019-05-11T00:33:36.476Z,16.70
2019-05-11T00:34:41.008Z,16.62
2019-05-11T00:35:45.551Z,20.75
2019-05-11T00:36:50.102Z,20.08
2019-05-11T00:37:54.602Z,21.27
2019-05-11T00:38:59.134Z,19.65
2019-05-11T00:40:13.881Z,22.05
2019-05-11T00:41:09.926Z,22.65
2019-05-11T00:42:14.500Z,16.85
2019-05-11T00:43:19.101Z,18.57
2019-05-11T00:44:23.630Z,18.00
2019-05-11T00:45:28.335Z,16.30
2019-05-11T00:46:32.865Z,18.85
2019-05-11T00:47:37.430Z,19.17
2019-05-11T00:48:42.044Z,19.55
2019-05-11T00:49:46.698Z,18.48
2019-05-11T00:50:51.300Z,19.10
2019-05-11T00:51:55.826Z,19.15
2019-05-11T00:53:00.380Z,19.67
2019-05-11T00:54:05.006Z,22.60
2019-05-11T00:55:10.275Z,21.37
2019-05-11T00:56:14.779Z,20.02
2019-05-11T00:57:19.305Z,18.82
2019-05-11T00:58:23.901Z,18.45
2019-05-11T00:59:28.395Z,19.27
2019-05-11T01:00:32.899Z,19.02
2019-05-11T01:01:37.449Z,19.48
2019-05-11T01:02:42.029Z,19.05
2019-05-11T01:03:46.585Z,19.42
2019-05-11T01:04:51.149Z,18.25
2019-05-11T01:05:56.133Z,21.02
2019-05-11T01:07:00.723Z,20.77
2019-05-11T01:08:05.279Z,20.25
2019-05-11T01:09:09.879Z,17.92
2019-05-11T01:10:23.679Z,17.02
2019-05-11T01:11:20.708Z,18.17
2019-05-11T01:12:25.281Z,16.12
2019-05-11T01:13:29.820Z,18.15
2019-05-11T01:14:34.326Z,17.15
2019-05-11T01:15:38.843Z,16.40
2019-05-11T01:16:43.394Z,17.87
2019-05-11T01:17:47.960Z,20.02
2019-05-11T01:18:53.719Z,24.90
2019-05-11T01:19:59.571Z,23.85
2019-05-11T01:21:04.223Z,20.70
2019-05-11T01:22:08.909Z,19.75
2019-05-11T01:23:13.543Z,20.23
2019-05-11T01:24:18.056Z,19.35
2019-05-11T01:25:22.636Z,19.25
2019-05-11T01:26:27.292Z,21.05
2019-05-11T01:27:31.816Z,22.45
2019-05-11T01:28:36.334Z,19.35
2019-05-11T01:29:40.858Z,21.07
2019-05-11T01:30:45.439Z,19.98
2019-05-11T01:31:50.118Z,20.48
2019-05-11T01:32:54.763Z,19.98
2019-05-11T01:33:59.275Z,21.68
2019-05-11T01:35:03.855Z,19.75
2019-05-11T01:36:08.404Z,19.20
2019-05-11T01:37:13.009Z,18.48
2019-05-11T01:38:17.531Z,18.23
2019-05-11T01:39:22.015Z,18.07
2019-05-11T01:40:26.587Z,21.75
2019-05-11T01:41:31.155Z,20.32
2019-05-11T01:42:35.827Z,21.55
2019-05-11T01:43:40.373Z,19.60
2019-05-11T01:44:44.957Z,19.77
2019-05-11T01:45:49.557Z,20.65
2019-05-11T01:46:54.163Z,18.60
2019-05-11T01:47:58.697Z,18.82
2019-05-11T01:49:03.346Z,17.52
2019-05-11T01:50:08.140Z,18.07
2019-05-11T01:51:12.674Z,18.12
2019-05-11T01:52:17.244Z,18.73
2019-05-11T01:53:21.765Z,19.35
2019-05-11T01:54:26.553Z,18.17
2019-05-11T01:55:31.039Z,19.20
2019-05-11T01:56:35.535Z,17.70
2019-05-11T01:57:40.023Z,16.35
2019-05-11T01:58:44.524Z,17.90
2019-05-11T01:59:49.024Z,17.55
2019-05-11T02:00:53.535Z,18.32
2019-05-11T02:01:58.062Z,16.37
2019-05-11T02:03:03.718Z,17.82
2019-05-11T02:04:08.538Z,17.07
2019-05-11T02:05:29.153Z,16.57
2019-05-11T02:06:33.730Z,16.95
2019-05-11T02:07:38.248Z,17.32
2019-05-11T02:08:42.758Z,17.35
2019-05-11T02:09:47.252Z,19.87
2019-05-11T02:10:51.764Z,18.20
2019-05-11T02:11:56.361Z,19.15
2019-05-11T02:13:02.099Z,17.80
2019-05-11T02:14:06.716Z,17.10
2019-05-11T02:15:11.532Z,18.05
2019-05-11T02:16:16.041Z,18.65
2019-05-11T02:17:20.531Z,18.90
2019-05-11T02:18:25.114Z,18.67
2019-05-11T02:19:29.628Z,19.57
2019-05-11T02:20:34.158Z,19.75
2019-05-11T02:21:38.664Z,20.75
2019-05-11T02:22:43.173Z,20.40
2019-05-11T02:23:47.756Z,20.15
2019-05-11T02:24:52.241Z,21.45
2019-05-11T02:25:56.727Z,18.82
2019-05-11T02:27:01.603Z,20.30
2019-05-11T02:28:06.173Z,20.62
2019-05-11T02:29:10.682Z,21.12
2019-05-11T02:30:17.043Z,20.15
2019-05-11T02:31:21.574Z,20.20
2019-05-11T02:32:26.240Z,18.55
2019-05-11T02:33:30.794Z,18.92
2019-05-11T02:34:35.379Z,18.73
2019-05-11T02:35:40.146Z,19.73
2019-05-11T02:36:44.746Z,18.45
2019-05-11T02:37:49.349Z,18.62
2019-05-11T02:38:53.852Z,18.70
2019-05-11T02:39:58.392Z,18.02
2019-05-11T02:41:02.959Z,19.12
2019-05-11T02:42:07.895Z,16.80
2019-05-11T02:43:12.495Z,17.50
2019-05-11T02:44:17.084Z,17.85
2019-05-11T02:45:38.915Z,16.35
2019-05-11T02:46:43.420Z,16.82
2019-05-11T02:47:48.010Z,16.32
2019-05-11T02:48:52.585Z,17.37
2019-05-11T02:49:57.217Z,17.10
2019-05-11T02:51:02.160Z,17.10
2019-05-11T02:52:07.254Z,16.50
2019-05-11T02:53:11.765Z,17.12
2019-05-11T02:54:16.411Z,16.07
2019-05-11T02:55:21.031Z,16.30
2019-05-11T02:56:25.535Z,14.25
2019-05-11T02:57:30.183Z,15.55
2019-05-11T02:58:34.692Z,15.50
2019-05-11T02:59:39.226Z,15.00
2019-05-11T03:00:45.181Z,15.60
2019-05-11T03:01:49.837Z,14.25
2019-05-11T03:02:54.428Z,14.00
2019-05-11T03:03:58.928Z,15.00
2019-05-11T03:05:03.491Z,14.18
2019-05-11T03:06:08.083Z,14.23
2019-05-11T03:07:13.598Z,13.95
2019-05-11T03:08:19.156Z,15.13
2019-05-11T03:09:26.465Z,14.98
2019-05-11T03:10:31.105Z,13.85
2019-05-11T03:11:53.650Z,15.30
2019-05-11T03:12:41.892Z,15.08
2019-05-11T03:13:46.371Z,15.72
2019-05-11T03:14:50.848Z,14.63
2019-05-11T03:15:55.681Z,14.65
2019-05-11T03:17:13.978Z,14.73
2019-05-11T03:18:18.669Z,14.93
2019-05-11T03:19:23.159Z,14.53
2019-05-11T03:20:27.721Z,14.38
2019-05-11T03:21:32.242Z,15.43
2019-05-11T03:22:37.596Z,15.60
2019-05-11T03:23:42.082Z,14.90
2019-05-11T03:24:46.637Z,15.55
2019-05-11T03:25:51.125Z,15.00
2019-05-11T03:26:55.653Z,14.50
2019-05-11T03:28:00.196Z,15.08
2019-05-11T03:29:04.749Z,14.95
2019-05-11T03:30:09.477Z,15.30
2019-05-11T03:31:14.122Z,15.38
2019-05-11T03:32:18.753Z,15.72
2019-05-11T03:33:23.309Z,16.40
2019-05-11T03:34:27.889Z,15.78
2019-05-11T03:35:32.436Z,16.70
2019-05-11T03:36:36.950Z,15.83
2019-05-11T03:37:41.537Z,16.77
2019-05-11T03:38:46.149Z,16.15
2019-05-11T03:39:50.716Z,15.15
2019-05-11T03:40:55.316Z,16.97
2019-05-11T03:42:14.083Z,15.23
2019-05-11T03:43:06.067Z,16.15
2019-05-11T03:44:10.673Z,16.02
2019-05-11T03:45:15.587Z,16.15
2019-05-11T03:46:20.123Z,14.28
2019-05-11T03:47:24.721Z,14.85
2019-05-11T03:48:29.235Z,14.95
2019-05-11T03:49:33.717Z,16.25
2019-05-11T03:50:38.209Z,15.58
2019-05-11T03:51:42.745Z,15.13
2019-05-11T03:52:47.428Z,15.38
2019-05-11T03:53:51.933Z,14.98
2019-05-11T03:54:56.451Z,14.98
2019-05-11T03:56:01.132Z,15.03
2019-05-11T03:57:05.741Z,15.55
2019-05-11T03:58:10.409Z,15.32
2019-05-11T03:59:14.979Z,16.15
2019-05-11T04:00:20.849Z,14.73
2019-05-11T04:01:26.654Z,13.58
2019-05-11T04:02:31.190Z,12.50
2019-05-11T04:03:35.704Z,13.13
2019-05-11T04:04:40.358Z,10.95
2019-05-11T04:05:45.068Z,11.00
2019-05-11T04:06:49.587Z,11.08
2019-05-11T04:07:54.072Z,11.57
2019-05-11T04:08:58.670Z,10.90
2019-05-11T04:10:03.277Z,10.85
2019-05-11T04:11:07.924Z,10.35
2019-05-11T04:12:12.535Z,10.15
2019-05-11T04:13:17.053Z,10.00
2019-05-11T04:14:21.587Z,9.30
2019-05-11T04:15:26.119Z,9.23
2019-05-11T04:16:30.620Z,8.55
2019-05-11T04:17:35.165Z,9.23
2019-05-11T04:18:39.715Z,8.38
2019-05-11T04:19:44.238Z,9.43
2019-05-11T04:20:48.909Z,8.93
2019-05-11T04:21:53.537Z,8.48
2019-05-11T04:22:58.090Z,7.75
2019-05-11T04:24:03.396Z,7.80
2019-05-11T04:25:08.075Z,9.23
2019-05-11T04:26:12.733Z,9.43
2019-05-11T04:27:19.705Z,10.20
2019-05-11T04:28:23.474Z,8.47
2019-05-11T04:29:28.001Z,9.57
2019-05-11T04:30:32.505Z,8.63
2019-05-11T04:31:37.018Z,8.50
2019-05-11T04:32:41.571Z,8.97
2019-05-11T04:33:46.083Z,8.75
2019-05-11T04:34:50.644Z,8.60
2019-05-11T04:35:55.336Z,9.73
2019-05-11T04:36:59.984Z,8.90
2019-05-11T04:38:04.629Z,7.83
2019-05-11T04:39:09.121Z,7.17
2019-05-11T04:40:13.947Z,7.03
2019-05-11T04:41:18.627Z,6.50
2019-05-11T04:42:23.336Z,7.60
2019-05-11T04:43:27.914Z,6.47
2019-05-11T04:44:32.431Z,6.90
2019-05-11T04:45:37.019Z,6.50
2019-05-11T04:46:41.664Z,6.73
2019-05-11T04:47:46.154Z,8.60
2019-05-11T04:48:50.659Z,7.33
2019-05-11T04:49:55.340Z,7.00
2019-05-11T04:51:00.041Z,6.73
2019-05-11T04:52:04.687Z,6.13
2019-05-11T04:53:09.205Z,6.80
2019-05-11T04:54:13.818Z,6.93
2019-05-11T04:55:18.633Z,7.33
2019-05-11T04:56:23.130Z,6.13
2019-05-11T04:57:27.640Z,7.43
2019-05-11T04:58:34.094Z,6.33
2019-05-11T04:59:38.451Z,6.80
2019-05-11T05:00:42.973Z,7.33
2019-05-11T05:01:47.509Z,6.47
2019-05-11T05:02:52.057Z,6.67
2019-05-11T05:04:12.994Z,6.97
2019-05-11T05:05:03.008Z,5.97
2019-05-11T05:06:21.741Z,7.00
2019-05-11T05:07:16.559Z,6.00
2019-05-11T05:08:21.332Z,6.20
2019-05-11T05:09:26.655Z,6.33
2019-05-11T05:10:31.283Z,6.03
2019-05-11T05:11:36.654Z,5.50
2019-05-11T05:12:50.798Z,5.77
2019-05-11T05:13:48.285Z,5.87
2019-05-11T05:14:52.808Z,5.77
2019-05-11T05:15:57.348Z,5.63
2019-05-11T05:17:01.871Z,4.80
2019-05-11T05:18:06.385Z,4.87
2019-05-11T05:19:10.884Z,5.53
2019-05-11T05:20:15.679Z,4.50
2019-05-11T05:21:20.276Z,4.93
2019-05-11T05:22:27.888Z,4.30
2019-05-11T05:23:31.156Z,4.60
2019-05-11T05:24:35.701Z,4.40
2019-05-11T05:25:40.223Z,4.17
2019-05-11T05:26:44.762Z,4.60
2019-05-11T05:27:49.248Z,4.60
2019-05-11T05:28:53.760Z,4.47
2019-05-11T05:29:58.364Z,4.30
2019-05-11T05:31:02.963Z,4.20
2019-05-11T05:32:07.549Z,4.43
2019-05-11T05:33:12.112Z,5.87
2019-05-11T05:34:16.609Z,4.50
2019-05-11T05:35:21.142Z,4.43
2019-05-11T05:36:25.717Z,4.83
2019-05-11T05:37:30.344Z,5.83
2019-05-11T05:38:34.920Z,5.37
2019-05-11T05:39:39.398Z,4.97
2019-05-11T05:40:43.924Z,5.27
2019-05-11T05:41:56.655Z,5.07
2019-05-11T05:42:54.717Z,5.27
2019-05-11T05:43:59.202Z,5.30
2019-05-11T05:45:03.836Z,5.57
2019-05-11T05:46:08.533Z,4.87
2019-05-11T05:47:13.043Z,6.07
2019-05-11T05:48:17.520Z,4.90
2019-05-11T05:49:22.168Z,5.30
2019-05-11T05:50:26.660Z,4.90
2019-05-11T05:51:31.170Z,4.80
2019-05-11T05:52:35.684Z,6.13
2019-05-11T05:53:40.191Z,5.03
2019-05-11T05:54:44.836Z,4.97
2019-05-11T05:55:49.383Z,5.47
2019-05-11T05:56:53.978Z,4.63
2019-05-11T05:57:58.571Z,5.70
2019-05-11T05:59:03.088Z,5.17
2019-05-11T06:00:08.219Z,5.13
2019-05-11T06:01:12.725Z,4.73
2019-05-11T06:02:17.247Z,4.93
2019-05-11T06:03:21.759Z,4.50
2019-05-11T06:04:26.343Z,4.30
2019-05-11T06:05:30.890Z,4.53
2019-05-11T06:06:35.473Z,5.83
2019-05-11T06:07:39.992Z,4.90
2019-05-11T06:08:44.577Z,4.40
2019-05-11T06:09:49.130Z,5.33
2019-05-11T06:10:53.644Z,4.23
2019-05-11T06:11:58.218Z,4.27
2019-05-11T06:13:02.731Z,4.93
2019-05-11T06:14:07.215Z,5.00
2019-05-11T06:15:12.940Z,4.33
2019-05-11T06:16:17.445Z,4.60
2019-05-11T06:17:21.946Z,4.10
2019-05-11T06:18:26.472Z,4.87
2019-05-11T06:19:30.992Z,5.20
2019-05-11T06:20:35.505Z,4.53
2019-05-11T06:21:39.996Z,4.07
2019-05-11T06:22:44.558Z,3.70
2019-05-11T06:23:49.056Z,4.13
2019-05-11T06:24:53.843Z,4.70
2019-05-11T06:25:58.399Z,3.90
2019-05-11T06:27:02.958Z,4.17
2019-05-11T06:28:07.431Z,4.27
2019-05-11T06:29:11.922Z,4.50
2019-05-11T06:30:16.944Z,4.30
2019-05-11T06:31:21.497Z,3.57
2019-05-11T06:32:25.988Z,3.03
2019-05-11T06:33:30.497Z,3.70
2019-05-11T06:34:35.140Z,3.70
2019-05-11T06:35:39.688Z,5.03
2019-05-11T06:36:44.251Z,5.70
2019-05-11T06:37:48.861Z,4.17
2019-05-11T06:38:53.424Z,3.70
2019-05-11T06:39:58.038Z,3.50
2019-05-11T06:41:02.671Z,2.93
2019-05-11T06:42:08.100Z,3.30
2019-05-11T06:43:12.592Z,4.40
2019-05-11T06:44:17.104Z,3.10
2019-05-11T06:45:21.754Z,3.63
2019-05-11T06:46:26.442Z,3.20
2019-05-11T06:47:31.197Z,3.57
2019-05-11T06:48:35.691Z,5.00
2019-05-11T06:49:40.291Z,4.13
2019-05-11T06:50:44.806Z,3.90
2019-05-11T06:51:49.405Z,4.37
2019-05-11T06:52:53.898Z,3.50
2019-05-11T06:53:58.423Z,3.97
2019-05-11T06:55:03.181Z,3.60
2019-05-11T06:56:07.883Z,3.90
2019-05-11T06:57:12.408Z,3.90
2019-05-11T06:58:16.925Z,3.63
2019-05-11T06:59:21.510Z,3.27
2019-05-11T07:00:26.292Z,3.30
2019-05-11T07:01:30.989Z,3.63
2019-05-11T07:02:35.567Z,3.90
2019-05-11T07:03:40.044Z,3.00
2019-05-11T07:04:44.613Z,4.30
2019-05-11T07:05:49.116Z,4.00
2019-05-11T07:06:53.644Z,3.33
2019-05-11T07:07:58.216Z,3.50
2019-05-11T07:09:02.867Z,3.47
2019-05-11T07:10:07.673Z,2.83
2019-05-11T07:11:12.174Z,4.80
2019-05-11T07:12:16.951Z,5.60
2019-05-11T07:13:21.684Z,2.90
2019-05-11T07:14:26.195Z,3.00
2019-05-11T07:15:30.744Z,3.97
2019-05-11T07:16:35.266Z,3.27
2019-05-11T07:17:39.765Z,3.07
2019-05-11T07:18:46.858Z,2.87
2019-05-11T07:19:51.527Z,3.10
2019-05-11T07:20:56.015Z,3.83
2019-05-11T07:22:00.531Z,4.00
2019-05-11T07:23:05.103Z,3.90
2019-05-11T07:24:09.603Z,3.70
2019-05-11T07:25:14.187Z,3.40
2019-05-11T07:26:18.757Z,3.73
2019-05-11T07:27:23.316Z,3.00
2019-05-11T07:28:27.805Z,3.97
2019-05-11T07:29:32.291Z,3.40
2019-05-11T07:30:36.903Z,3.00
2019-05-11T07:31:41.380Z,11.00
2019-05-11T07:32:47.941Z,3.70
2019-05-11T07:33:52.068Z,2.83
2019-05-11T07:34:57.755Z,3.27
2019-05-11T07:36:02.476Z,2.80
2019-05-11T07:37:08.250Z,3.13
2019-05-11T07:38:12.939Z,3.43
2019-05-11T07:39:18.672Z,4.17
2019-05-11T07:40:23.411Z,3.40
2019-05-11T07:41:28.249Z,3.60
2019-05-11T07:42:32.904Z,3.63
2019-05-11T07:43:38.153Z,2.80
2019-05-11T07:44:42.986Z,3.77
2019-05-11T07:45:48.088Z,4.00
2019-05-11T07:46:52.648Z,3.40
2019-05-11T07:47:58.999Z,3.57
2019-05-11T07:49:03.541Z,3.40
2019-05-11T07:50:08.610Z,3.33
2019-05-11T07:51:13.200Z,3.63
2019-05-11T07:52:18.259Z,3.50
2019-05-11T07:53:23.141Z,3.10
2019-05-11T07:54:28.198Z,2.80
2019-05-11T07:55:32.974Z,3.03
2019-05-11T07:56:39.052Z,2.50
2019-05-11T07:57:43.716Z,3.10
2019-05-11T07:58:48.311Z,4.43
2019-05-11T07:59:52.895Z,4.00
2019-05-11T08:00:58.181Z,3.53
2019-05-11T08:02:02.973Z,3.57
2019-05-11T08:03:09.002Z,4.00
2019-05-11T08:04:13.839Z,3.60
2019-05-11T08:05:18.433Z,4.13
2019-05-11T08:06:23.144Z,3.17
2019-05-11T08:07:28.494Z,3.23
2019-05-11T08:08:33.382Z,3.37
2019-05-11T08:09:38.213Z,2.77
2019-05-11T08:10:42.723Z,4.07
2019-05-11T08:11:47.884Z,3.20
2019-05-11T08:12:52.582Z,2.97
2019-05-11T08:14:00.316Z,3.00
2019-05-11T08:15:11.708Z,3.17
2019-05-11T08:16:11.398Z,3.50
2019-05-11T08:17:18.502Z,2.83
2019-05-11T08:18:22.173Z,3.10
2019-05-11T08:19:28.268Z,2.80
2019-05-11T08:20:33.036Z,2.80
2019-05-11T08:21:38.868Z,3.37
2019-05-11T08:22:43.589Z,3.40
2019-05-11T08:23:48.496Z,2.80
2019-05-11T08:24:53.266Z,3.13
2019-05-11T08:25:58.215Z,3.17
2019-05-11T08:27:03.513Z,4.40
2019-05-11T08:28:11.905Z,3.10
2019-05-11T08:29:14.486Z,3.50
2019-05-11T08:30:19.465Z,2.80
2019-05-11T08:31:23.985Z,3.43
2019-05-11T08:32:28.821Z,3.03
2019-05-11T08:33:33.650Z,2.67
2019-05-11T08:34:39.785Z,2.73
2019-05-11T08:35:44.592Z,2.50
2019-05-11T08:36:49.115Z,3.37
2019-05-11T08:37:53.692Z,2.33
2019-05-11T08:38:58.721Z,2.67
2019-05-11T08:40:03.461Z,2.83
2019-05-11T08:41:08.246Z,2.93
2019-05-11T08:42:12.989Z,2.40
2019-05-11T08:43:18.027Z,2.40
2019-05-11T08:44:22.828Z,3.17
2019-05-11T08:45:28.103Z,2.97
2019-05-11T08:46:32.828Z,2.90
2019-05-11T08:47:37.852Z,3.43
2019-05-11T08:48:42.589Z,2.67
2019-05-11T08:49:48.461Z,3.40
2019-05-11T08:50:53.280Z,2.80
2019-05-11T08:51:58.038Z,4.53
2019-05-11T08:53:02.804Z,5.03
2019-05-11T08:54:09.025Z,2.73
2019-05-11T08:55:13.861Z,2.63
2019-05-11T08:56:18.979Z,2.70
2019-05-11T08:57:23.708Z,2.73
2019-05-11T08:58:28.235Z,2.93
2019-05-11T08:59:32.809Z,4.07
2019-05-11T09:00:38.947Z,3.53
2019-05-11T09:01:44.741Z,3.40
2019-05-11T09:02:50.723Z,2.60
2019-05-11T09:03:57.687Z,2.97
2019-05-11T09:05:01.819Z,2.80
2019-05-11T09:06:08.417Z,3.67
2019-05-11T09:07:12.579Z,2.90
2019-05-11T09:08:18.771Z,2.33
2019-05-11T09:09:23.514Z,2.53
2019-05-11T09:10:28.383Z,2.60
2019-05-11T09:11:33.012Z,2.60
2019-05-11T09:12:38.278Z,3.03
2019-05-11T09:13:42.996Z,3.83
2019-05-11T09:14:47.958Z,3.37
2019-05-11T09:15:52.608Z,2.60
2019-05-11T09:16:57.762Z,2.33
2019-05-11T09:18:02.696Z,3.30
2019-05-11T09:19:08.813Z,2.73
2019-05-11T09:20:13.701Z,2.47
2019-05-11T09:21:19.045Z,2.67
2019-05-11T09:22:23.929Z,4.57
2019-05-11T09:23:34.443Z,4.47
2019-05-11T09:24:34.638Z,3.30
2019-05-11T09:25:39.166Z,3.57
2019-05-11T09:26:43.868Z,6.50
2019-05-11T09:27:48.524Z,2.80
2019-05-11T09:28:53.193Z,2.53
2019-05-11T09:29:58.779Z,2.67
2019-05-11T09:31:03.717Z,2.67
2019-05-11T09:32:08.808Z,2.83
2019-05-11T09:33:13.702Z,2.70
2019-05-11T09:34:18.303Z,2.67
2019-05-11T09:35:23.182Z,2.27
2019-05-11T09:36:28.543Z,2.30
2019-05-11T09:37:33.365Z,2.30
2019-05-11T09:38:38.449Z,2.50
2019-05-11T09:39:43.190Z,2.20
2019-05-11T09:40:48.110Z,2.30
2019-05-11T09:41:52.707Z,2.20
2019-05-11T09:42:58.514Z,2.93
2019-05-11T09:44:03.366Z,2.63
2019-05-11T09:45:08.243Z,2.50
2019-05-11T09:46:12.951Z,2.20
2019-05-11T09:47:18.985Z,1.97
2019-05-11T09:48:23.638Z,2.30
2019-05-11T09:49:43.375Z,2.50
2019-05-11T09:50:34.345Z,2.97
2019-05-11T09:51:39.288Z,3.03
2019-05-11T09:52:43.857Z,2.70
2019-05-11T09:53:48.574Z,2.93
2019-05-11T09:54:53.279Z,2.63
2019-05-11T09:55:58.750Z,2.60
2019-05-11T09:57:03.443Z,3.03
2019-05-11T09:58:08.577Z,3.17
2019-05-11T09:59:13.268Z,2.20
2019-05-11T10:00:18.122Z,2.50
2019-05-11T10:01:22.597Z,3.50
2019-05-11T10:02:28.035Z,2.67
2019-05-11T10:03:32.666Z,2.70
2019-05-11T10:04:38.175Z,2.40
2019-05-11T10:05:42.857Z,3.17
2019-05-11T10:06:48.116Z,3.43
2019-05-11T10:07:52.937Z,2.67
2019-05-11T10:09:00.200Z,3.30
2019-05-11T10:10:05.333Z,2.53
2019-05-11T10:11:09.880Z,2.73
2019-05-11T10:12:14.399Z,2.40
2019-05-11T10:13:18.880Z,2.87
2019-05-11T10:14:23.405Z,2.60
2019-05-11T10:15:28.135Z,3.40
2019-05-11T10:16:32.768Z,3.33
2019-05-11T10:17:38.293Z,3.17
2019-05-11T10:18:43.161Z,2.83
2019-05-11T10:19:49.695Z,3.80
2019-05-11T10:20:54.380Z,3.13
2019-05-11T10:21:58.922Z,3.63
2019-05-11T10:23:03.425Z,2.70
2019-05-11T10:24:10.017Z,3.07
2019-05-11T10:25:14.694Z,2.93
2019-05-11T10:26:19.372Z,2.80
2019-05-11T10:27:23.895Z,2.37
2019-05-11T10:28:28.578Z,2.67
2019-05-11T10:29:34.022Z,2.60
2019-05-11T10:30:38.781Z,3.00
2019-05-11T10:31:43.308Z,2.80
2019-05-11T10:32:48.518Z,2.57
2019-05-11T10:33:53.181Z,2.73
2019-05-11T10:34:58.402Z,2.80
2019-05-11T10:36:03.359Z,3.10
2019-05-11T10:37:08.637Z,2.93
2019-05-11T10:38:13.233Z,2.80
2019-05-11T10:39:18.722Z,2.43
2019-05-11T10:40:23.400Z,2.40
2019-05-11T10:41:28.591Z,2.60
2019-05-11T10:42:33.218Z,2.53
2019-05-11T10:43:38.302Z,2.37
2019-05-11T10:44:43.366Z,2.80
2019-05-11T10:45:48.483Z,2.50
2019-05-11T10:46:53.202Z,3.20
2019-05-11T10:48:00.929Z,3.50
2019-05-11T10:49:08.016Z,2.40
2019-05-11T10:50:12.867Z,2.30
2019-05-11T10:51:18.416Z,2.77
2019-05-11T10:52:23.179Z,2.90
2019-05-11T10:53:27.981Z,2.40
2019-05-11T10:54:32.635Z,2.90
2019-05-11T10:55:38.840Z,3.47
2019-05-11T10:56:43.461Z,3.13
2019-05-11T10:57:48.791Z,3.20
2019-05-11T10:58:53.488Z,2.47
2019-05-11T10:59:58.150Z,2.80
2019-05-11T11:01:02.726Z,3.13
2019-05-11T11:02:08.055Z,3.67
2019-05-11T11:03:12.799Z,2.60
2019-05-11T11:04:18.342Z,2.80
2019-05-11T11:05:23.206Z,3.17
2019-05-11T11:06:28.285Z,2.60
2019-05-11T11:07:32.971Z,2.57
2019-05-11T11:08:38.281Z,2.97
2019-05-11T11:09:43.069Z,2.20
2019-05-11T11:10:48.322Z,2.60
2019-05-11T11:11:53.100Z,2.80
2019-05-11T11:12:57.864Z,2.20
2019-05-11T11:14:02.569Z,2.80
2019-05-11T11:15:07.809Z,2.87
2019-05-11T11:16:12.480Z,2.87
2019-05-11T11:17:19.043Z,2.60
2019-05-11T11:18:23.292Z,2.63
2019-05-11T11:19:28.946Z,2.73
2019-05-11T11:20:33.877Z,2.73
2019-05-11T11:21:38.564Z,2.70
2019-05-11T11:22:44.346Z,2.43
2019-05-11T11:23:49.064Z,4.13
2019-05-11T11:24:53.968Z,2.70
2019-05-11T11:25:58.654Z,3.13
2019-05-11T11:27:03.202Z,2.30
2019-05-11T11:28:08.480Z,2.50
2019-05-11T11:29:13.849Z,2.73
2019-05-11T11:30:19.448Z,2.90
2019-05-11T11:31:24.023Z,3.27
2019-05-11T11:32:28.510Z,2.10
2019-05-11T11:33:33.050Z,2.93
2019-05-11T11:34:38.355Z,2.73
2019-05-11T11:35:43.068Z,2.20
2019-05-11T11:36:48.265Z,2.27
2019-05-11T11:37:52.920Z,2.80
2019-05-11T11:38:58.371Z,2.80
2019-05-11T11:40:03.128Z,2.60
2019-05-11T11:41:07.810Z,3.00
2019-05-11T11:42:12.496Z,2.40
2019-05-11T11:43:18.053Z,3.30
2019-05-11T11:44:22.737Z,2.37
2019-05-11T11:45:28.811Z,2.40
2019-05-11T11:46:46.710Z,2.60
2019-05-11T11:47:39.854Z,2.40
2019-05-11T11:48:44.380Z,2.80
2019-05-11T11:49:48.941Z,2.62
2019-05-11T11:50:53.418Z,3.42
2019-05-11T11:51:58.080Z,2.30
2019-05-11T11:53:02.781Z,2.40
2019-05-11T11:54:08.788Z,3.42
2019-05-11T11:55:13.568Z,2.72
2019-05-11T11:56:19.241Z,2.95
2019-05-11T11:57:24.055Z,2.77
2019-05-11T11:58:28.568Z,2.20
2019-05-11T11:59:33.100Z,2.17
2019-05-11T12:00:39.049Z,2.00
2019-05-11T12:01:43.903Z,2.55
2019-05-11T12:02:48.819Z,2.17
2019-05-11T12:03:53.368Z,2.80
2019-05-11T12:04:58.339Z,2.30
2019-05-11T12:06:03.036Z,2.25
2019-05-11T12:07:08.473Z,2.20
2019-05-11T12:08:13.262Z,2.52
2019-05-11T12:09:18.333Z,2.10
2019-05-11T12:10:22.883Z,2.20
2019-05-11T12:11:27.986Z,3.08
2019-05-11T12:12:32.717Z,2.22
2019-05-11T12:13:38.387Z,2.50
2019-05-11T12:14:43.230Z,2.62
2019-05-11T12:15:48.356Z,1.98
2019-05-11T12:17:06.782Z,2.40
2019-05-11T12:17:59.272Z,2.65
2019-05-11T12:19:05.378Z,2.75
2019-05-11T12:20:10.590Z,3.17
2019-05-11T12:21:15.418Z,2.85
2019-05-11T12:22:19.995Z,3.25
2019-05-11T12:23:24.555Z,3.22
2019-05-11T12:24:29.123Z,2.37
2019-05-11T12:25:37.314Z,2.37
2019-05-11T12:26:40.184Z,2.92
2019-05-11T12:27:44.735Z,2.90
2019-05-11T12:28:49.319Z,2.27
2019-05-11T12:29:53.801Z,2.27
2019-05-11T12:30:58.645Z,2.00
2019-05-11T12:32:07.959Z,2.00
2019-05-11T12:33:11.718Z,2.30
2019-05-11T12:34:17.932Z,2.35
2019-05-11T12:35:22.461Z,2.17
2019-05-11T12:36:28.085Z,2.35
2019-05-11T12:37:32.780Z,2.70
2019-05-11T12:38:38.184Z,2.95
2019-05-11T12:39:43.120Z,2.75
2019-05-11T12:40:47.842Z,2.83
2019-05-11T12:41:52.527Z,2.58
2019-05-11T12:42:59.083Z,2.50
2019-05-11T12:44:03.233Z,3.20
2019-05-11T12:45:08.384Z,3.00
2019-05-11T12:46:12.923Z,3.22
2019-05-11T12:47:22.239Z,6.12
2019-05-11T12:48:23.836Z,3.42
2019-05-11T12:49:28.929Z,2.60
2019-05-11T12:50:33.702Z,2.60
2019-05-11T12:51:38.421Z,3.02
2019-05-11T12:52:43.064Z,2.95
2019-05-11T12:53:47.871Z,2.10
2019-05-11T12:54:52.456Z,2.02
2019-05-11T12:55:58.899Z,2.08
2019-05-11T12:57:03.221Z,2.95
2019-05-11T12:58:08.536Z,3.12
2019-05-11T12:59:13.245Z,2.20
2019-05-11T13:00:18.152Z,2.40
2019-05-11T13:01:22.642Z,2.40
2019-05-11T13:02:28.027Z,2.40
2019-05-11T13:03:32.693Z,2.30
2019-05-11T13:04:38.529Z,2.33
2019-05-11T13:05:43.115Z,2.05
2019-05-11T13:06:47.991Z,2.50
2019-05-11T13:07:52.655Z,2.40
2019-05-11T13:08:58.761Z,3.27
2019-05-11T13:10:03.303Z,2.92
2019-05-11T13:11:08.326Z,2.35
2019-05-11T13:12:12.888Z,2.70
2019-05-11T13:13:18.194Z,2.45
2019-05-11T13:14:22.905Z,2.42
2019-05-11T13:15:28.139Z,2.10
2019-05-11T13:16:32.828Z,2.10
2019-05-11T13:17:40.168Z,2.20
2019-05-11T13:18:43.477Z,2.27
2019-05-11T13:19:48.103Z,2.30
2019-05-11T13:20:52.609Z,2.50
2019-05-11T13:21:58.938Z,2.58
2019-05-11T13:23:03.421Z,2.72
2019-05-11T13:24:08.479Z,2.37
2019-05-11T13:25:13.444Z,2.35
2019-05-11T13:26:18.249Z,2.33
2019-05-11T13:27:22.787Z,2.50
2019-05-11T13:28:28.414Z,2.80
2019-05-11T13:29:33.173Z,2.47
2019-05-11T13:30:38.213Z,2.15
2019-05-11T13:31:42.995Z,2.00
2019-05-11T13:32:48.992Z,2.10
2019-05-11T13:33:53.769Z,2.37
2019-05-11T13:34:58.481Z,2.42
2019-05-11T13:36:03.120Z,2.50
2019-05-11T13:37:08.165Z,2.30
2019-05-11T13:38:12.835Z,2.27
2019-05-11T13:39:18.054Z,2.17
2019-05-11T13:40:22.824Z,2.05
2019-05-11T13:41:28.089Z,2.05
2019-05-11T13:42:32.882Z,2.30
2019-05-11T13:43:38.566Z,2.33
2019-05-11T13:44:43.322Z,1.98
2019-05-11T13:45:47.984Z,2.15
2019-05-11T13:46:52.626Z,2.20
2019-05-11T13:47:59.165Z,2.27
2019-05-11T13:49:03.364Z,1.92
2019-05-11T13:50:08.185Z,2.37
2019-05-11T13:51:12.729Z,2.25
2019-05-11T13:52:17.993Z,2.12
2019-05-11T13:53:23.001Z,2.50
2019-05-11T13:54:29.644Z,2.60
2019-05-11T13:55:33.767Z,2.30
2019-05-11T13:56:38.430Z,2.50
2019-05-11T13:57:42.908Z,2.90
2019-05-11T13:58:48.877Z,2.33
2019-05-11T13:59:53.500Z,2.55
2019-05-11T14:00:58.518Z,2.33
2019-05-11T14:02:03.385Z,2.45
2019-05-11T14:03:09.009Z,2.40
2019-05-11T14:04:13.732Z,2.72
2019-05-11T14:05:18.375Z,3.00
2019-05-11T14:06:22.906Z,2.83
2019-05-11T14:07:27.665Z,2.45
2019-05-11T14:08:32.328Z,3.00
2019-05-11T14:09:38.017Z,2.47
2019-05-11T14:10:42.675Z,2.42
2019-05-11T14:11:47.901Z,2.60
2019-05-11T14:12:52.739Z,2.70
2019-05-11T14:13:58.473Z,2.70
2019-05-11T14:15:03.106Z,3.70
2019-05-11T14:16:08.094Z,2.72